createdAt,value
2018-10-01T00:00:16.011Z,41.71
2018-10-01T00:02:44.331Z,42.04
2018-10-01T00:05:12.610Z,41.55
2018-10-01T00:07:40.902Z,41.47
2018-10-01T00:10:09.284Z,42.24
2018-10-01T00:12:37.631Z,42.24
2018-10-01T00:15:06.850Z,41.48
2018-10-01T00:17:35.183Z,41.48
2018-10-01T00:20:08.807Z,41.66
2018-10-01T00:22:42.566Z,41.61
2018-10-01T00:25:10.934Z,42.62
2018-10-01T00:27:39.242Z,41.89
2018-10-01T00:30:07.550Z,42.44
2018-10-01T00:32:36.085Z,42.48
2018-10-01T00:35:04.399Z,41.67
2018-10-01T00:37:32.731Z,42.20
2018-10-01T00:40:01.042Z,41.99
2018-10-01T00:42:29.462Z,42.51
2018-10-01T00:44:57.746Z,41.79
2018-10-01T00:47:26.095Z,41.77
2018-10-01T00:49:54.365Z,42.57
2018-10-01T00:52:22.667Z,41.83
2018-10-01T00:54:50.951Z,42.04
2018-10-01T00:57:19.346Z,41.74
2018-10-01T00:59:47.698Z,42.69
2018-10-01T01:02:16.136Z,42.29
2018-10-01T01:04:44.427Z,42.69
2018-10-01T01:07:12.755Z,41.99
2018-10-01T01:09:41.084Z,41.99
2018-10-01T01:12:09.814Z,42.34
2018-10-01T01:14:38.599Z,42.86
2018-10-01T01:17:07.178Z,42.36
2018-10-01T01:19:35.486Z,42.42
2018-10-01T01:22:03.863Z,42.96
2018-10-01T01:24:32.186Z,42.37
2018-10-01T01:27:00.506Z,42.69
2018-10-01T01:29:28.895Z,42.75
2018-10-01T01:31:57.378Z,42.58
2018-10-01T01:34:25.822Z,43.00
2018-10-01T01:36:54.215Z,42.60
2018-10-01T01:39:22.518Z,42.75
2018-10-01T01:41:50.827Z,42.44
2018-10-01T01:44:19.162Z,43.16
2018-10-01T01:46:47.486Z,42.41
2018-10-01T01:49:15.795Z,42.49
2018-10-01T01:51:44.262Z,42.41
2018-10-01T01:54:12.574Z,43.32
2018-10-01T01:56:40.846Z,42.50
2018-10-01T01:59:09.147Z,42.56
2018-10-01T02:01:37.494Z,42.48
2018-10-01T02:04:05.879Z,43.02
2018-10-01T02:06:34.211Z,42.49
2018-10-01T02:09:02.527Z,42.87
2018-10-01T02:11:30.935Z,43.32
2018-10-01T02:13:59.243Z,42.96
2018-10-01T02:16:27.563Z,42.87
2018-10-01T02:18:55.870Z,42.63
2018-10-01T02:21:24.198Z,43.17
2018-10-01T02:23:52.606Z,42.91
2018-10-01T02:26:20.895Z,43.34
2018-10-01T02:28:49.177Z,42.90
2018-10-01T02:31:17.456Z,43.62
2018-10-01T02:33:45.794Z,42.86
2018-10-01T02:36:14.210Z,42.73
2018-10-01T02:38:42.548Z,43.33
2018-10-01T02:41:10.822Z,43.37
2018-10-01T02:43:39.198Z,43.22
2018-10-01T02:46:07.531Z,42.81
2018-10-01T02:48:35.835Z,42.84
2018-10-01T02:51:04.126Z,42.94
2018-10-01T02:53:38.171Z,42.81
2018-10-01T02:56:06.462Z,43.27
2018-10-01T02:58:34.765Z,43.43
2018-10-01T03:01:03.095Z,42.89
2018-10-01T03:03:31.498Z,42.92
2018-10-01T03:05:59.796Z,43.74
2018-10-01T03:08:28.115Z,43.52
2018-10-01T03:10:56.423Z,42.95
2018-10-01T03:13:24.814Z,43.33
2018-10-01T03:15:53.100Z,43.53
2018-10-01T03:18:21.407Z,43.44
2018-10-01T03:20:49.747Z,43.62
2018-10-01T03:23:18.047Z,43.84
2018-10-01T03:25:46.350Z,43.11
2018-10-01T03:28:14.645Z,43.21
2018-10-01T03:30:42.991Z,43.15
2018-10-01T03:33:11.355Z,43.02
2018-10-01T03:35:39.634Z,43.53
2018-10-01T03:38:07.933Z,43.81
2018-10-01T03:40:36.225Z,43.93
2018-10-01T03:43:04.520Z,43.58
2018-10-01T03:45:32.930Z,43.14
2018-10-01T03:48:01.242Z,43.57
2018-10-01T03:50:29.663Z,43.73
2018-10-01T03:52:57.982Z,43.59
2018-10-01T03:55:26.307Z,43.83
2018-10-01T03:57:54.584Z,44.19
2018-10-01T04:00:22.962Z,43.10
2018-10-01T04:02:51.591Z,43.08
2018-10-01T04:05:19.875Z,44.03
2018-10-01T04:07:48.208Z,43.81
2018-10-01T04:10:16.503Z,43.52
2018-10-01T04:12:44.817Z,43.53
2018-10-01T04:15:13.226Z,43.47
2018-10-01T04:17:41.547Z,43.75
2018-10-01T04:20:09.862Z,43.81
2018-10-01T04:22:39.237Z,43.79
2018-10-01T04:25:08.912Z,44.36
2018-10-01T04:27:37.729Z,43.63
2018-10-01T04:30:07.856Z,44.09
2018-10-01T04:32:36.151Z,44.13
2018-10-01T04:35:04.490Z,44.86
2018-10-01T04:37:32.827Z,44.61
2018-10-01T04:40:01.132Z,44.76
2018-10-01T04:42:29.422Z,44.35
2018-10-01T04:44:57.773Z,44.41
2018-10-01T04:47:26.126Z,45.00
2018-10-01T04:49:54.455Z,45.10
2018-10-01T04:52:22.735Z,45.13
2018-10-01T04:54:51.023Z,45.05
2018-10-01T04:57:19.366Z,44.46
2018-10-01T04:59:47.667Z,45.14
2018-10-01T05:02:16.009Z,44.79
2018-10-01T05:04:44.358Z,44.68
2018-10-01T05:07:13.631Z,45.50
2018-10-01T05:09:41.946Z,44.89
2018-10-01T05:12:10.371Z,44.72
2018-10-01T05:14:38.792Z,45.54
2018-10-01T05:17:07.090Z,45.09
2018-10-01T05:19:35.466Z,45.10
2018-10-01T05:22:03.862Z,44.84
2018-10-01T05:24:33.225Z,45.45
2018-10-01T05:27:01.580Z,44.98
2018-10-01T05:29:29.916Z,45.17
2018-10-01T05:31:58.400Z,44.78
2018-10-01T05:34:26.719Z,45.09
2018-10-01T05:36:55.123Z,45.25
2018-10-01T05:39:23.672Z,45.35
2018-10-01T05:41:52.082Z,44.93
2018-10-01T05:44:20.366Z,45.42
2018-10-01T05:46:48.697Z,45.29
2018-10-01T05:49:17.092Z,44.47
2018-10-01T05:51:45.350Z,45.07
2018-10-01T05:54:13.657Z,45.18
2018-10-01T05:56:42.060Z,44.67
2018-10-01T05:59:10.758Z,44.34
2018-10-01T06:01:39.116Z,44.86
2018-10-01T06:04:07.452Z,44.59
2018-10-01T06:06:35.785Z,44.83
2018-10-01T06:09:05.819Z,44.83
2018-10-01T06:11:34.126Z,44.82
2018-10-01T06:14:02.435Z,45.20
2018-10-01T06:16:30.746Z,44.24
2018-10-01T06:18:59.315Z,44.81
2018-10-01T06:21:27.613Z,44.52
2018-10-01T06:23:55.943Z,44.47
2018-10-01T06:26:24.243Z,44.79
2018-10-01T06:28:52.586Z,44.92
2018-10-01T06:31:21.008Z,44.91
2018-10-01T06:33:49.327Z,44.58
2018-10-01T06:36:17.783Z,44.95
2018-10-01T06:38:46.112Z,44.59
2018-10-01T06:41:14.515Z,44.34
2018-10-01T06:43:42.995Z,45.01
2018-10-01T06:46:11.405Z,44.49
2018-10-01T06:48:39.798Z,44.40
2018-10-01T06:51:08.111Z,45.30
2018-10-01T06:53:36.487Z,44.73
2018-10-01T06:56:04.878Z,45.13
2018-10-01T06:58:33.206Z,44.61
2018-10-01T07:01:01.610Z,44.83
2018-10-01T07:03:29.886Z,45.22
2018-10-01T07:05:58.718Z,44.97
2018-10-01T07:08:26.825Z,44.49
2018-10-01T07:10:55.111Z,44.41
2018-10-01T07:13:23.395Z,44.77
2018-10-01T07:15:51.711Z,44.76
2018-10-01T07:18:20.010Z,44.33
2018-10-01T07:20:48.294Z,44.26
2018-10-01T07:23:16.710Z,44.18
2018-10-01T07:25:44.902Z,44.89
2018-10-01T07:28:13.173Z,44.87
2018-10-01T07:30:41.482Z,44.29
2018-10-01T07:33:09.809Z,43.89
2018-10-01T07:35:38.143Z,44.46
2018-10-01T07:38:06.562Z,43.73
2018-10-01T07:40:34.869Z,44.15
2018-10-01T07:43:03.147Z,43.11
2018-10-01T07:45:31.684Z,43.17
2018-10-01T07:47:59.998Z,43.46
2018-10-01T07:50:28.390Z,43.71
2018-10-01T07:52:56.799Z,43.54
2018-10-01T07:55:25.090Z,43.08
2018-10-01T07:57:53.426Z,42.97
2018-10-01T08:00:21.858Z,43.20
2018-10-01T08:02:50.128Z,43.50
2018-10-01T08:05:18.560Z,43.38
2018-10-01T08:07:46.954Z,43.48
2018-10-01T08:10:15.323Z,43.46
2018-10-01T08:12:43.654Z,43.68
2018-10-01T08:15:11.966Z,43.12
2018-10-01T08:17:40.327Z,43.07
2018-10-01T08:20:08.628Z,42.98
2018-10-01T08:22:36.958Z,42.72
2018-10-01T08:25:05.266Z,42.86
2018-10-01T08:27:34.480Z,43.37
2018-10-01T08:30:02.882Z,43.38
2018-10-01T08:32:31.187Z,42.44
2018-10-01T08:34:59.629Z,42.99
2018-10-01T08:37:27.966Z,42.86
2018-10-01T08:39:56.350Z,42.24
2018-10-01T08:42:24.719Z,42.24
2018-10-01T08:44:53.023Z,43.07
2018-10-01T08:47:21.524Z,42.36
2018-10-01T08:49:54.838Z,42.13
2018-10-01T08:52:31.663Z,42.66
2018-10-01T08:55:00.074Z,41.97
2018-10-01T08:57:28.384Z,41.89
2018-10-01T08:59:56.673Z,41.98
2018-10-01T09:02:25.001Z,41.73
2018-10-01T09:04:53.326Z,41.30
2018-10-01T09:07:21.663Z,41.64
2018-10-01T09:09:49.978Z,41.92
2018-10-01T09:12:18.295Z,41.43
2018-10-01T09:14:46.697Z,41.71
2018-10-01T09:17:15.083Z,41.47
2018-10-01T09:19:43.679Z,41.84
2018-10-01T09:22:11.991Z,42.49
2018-10-01T09:24:40.267Z,41.42
2018-10-01T09:27:08.702Z,41.58
2018-10-01T09:29:37.491Z,42.09
2018-10-01T09:32:05.836Z,41.03
2018-10-01T09:34:34.095Z,40.87
2018-10-01T09:37:02.411Z,40.75
2018-10-01T09:39:30.763Z,40.54
2018-10-01T09:41:59.123Z,40.60
2018-10-01T09:44:27.467Z,40.91
2018-10-01T09:46:55.723Z,40.96
2018-10-01T09:49:24.066Z,40.04
2018-10-01T09:51:52.450Z,39.63
2018-10-01T09:54:20.763Z,39.76
2018-10-01T09:56:49.098Z,40.79
2018-10-01T09:59:17.487Z,40.78
2018-10-01T10:01:45.844Z,40.90
2018-10-01T10:04:14.177Z,40.61
2018-10-01T10:06:42.439Z,40.56
2018-10-01T10:09:11.556Z,41.03
2018-10-01T10:11:40.207Z,40.39
2018-10-01T10:14:09.614Z,39.82
2018-10-01T10:16:38.054Z,39.48
2018-10-01T10:19:06.372Z,39.45
2018-10-01T10:21:34.785Z,39.67
2018-10-01T10:24:03.114Z,39.45
2018-10-01T10:26:31.539Z,40.25
2018-10-01T10:28:59.827Z,39.59
2018-10-01T10:31:28.115Z,39.49
2018-10-01T10:33:56.456Z,39.33
2018-10-01T10:36:24.723Z,37.46
2018-10-01T10:38:53.031Z,36.61
2018-10-01T10:41:21.371Z,36.14
2018-10-01T10:43:49.743Z,34.89
2018-10-01T10:46:18.152Z,34.50
2018-10-01T10:48:46.531Z,34.39
2018-10-01T10:51:14.829Z,34.66
2018-10-01T10:53:43.158Z,36.24
2018-10-01T10:56:11.556Z,37.33
2018-10-01T10:58:39.858Z,37.67
2018-10-01T11:01:08.157Z,38.56
2018-10-01T11:03:36.463Z,39.34
2018-10-01T11:06:04.846Z,39.69
2018-10-01T11:08:33.182Z,40.18
2018-10-01T11:11:01.571Z,40.30
2018-10-01T11:13:29.902Z,40.48
2018-10-01T11:15:58.232Z,40.75
2018-10-01T11:18:26.570Z,40.48
2018-10-01T11:20:54.961Z,40.58
2018-10-01T11:23:23.170Z,41.04
2018-10-01T11:25:51.454Z,41.09
2018-10-01T11:28:19.942Z,41.08
2018-10-01T11:30:48.415Z,40.53
2018-10-01T11:33:16.995Z,40.74
2018-10-01T11:35:45.223Z,41.24
2018-10-01T11:38:13.851Z,41.14
2018-10-01T11:40:42.159Z,41.41
2018-10-01T11:43:10.557Z,39.31
2018-10-01T11:45:38.949Z,37.42
2018-10-01T11:48:07.302Z,36.60
2018-10-01T11:50:35.643Z,35.82
2018-10-01T11:53:04.460Z,35.85
2018-10-01T11:55:32.787Z,36.32
2018-10-01T11:58:01.097Z,37.09
2018-10-01T12:00:29.547Z,37.74
2018-10-01T12:02:57.914Z,38.04
2018-10-01T12:05:26.334Z,38.75
2018-10-01T12:07:54.677Z,38.50
2018-10-01T12:10:23.134Z,38.14
2018-10-01T12:12:51.459Z,39.23
2018-10-01T12:15:19.810Z,38.54
2018-10-01T12:17:48.081Z,39.38
2018-10-01T12:20:17.422Z,38.54
2018-10-01T12:22:45.794Z,38.61
2018-10-01T12:25:14.127Z,39.23
2018-10-01T12:27:42.483Z,39.66
2018-10-01T12:30:10.735Z,39.21
2018-10-01T12:32:39.246Z,39.50
2018-10-01T12:35:07.659Z,40.36
2018-10-01T12:37:35.966Z,40.35
2018-10-01T12:40:04.390Z,39.71
2018-10-01T12:42:32.794Z,40.32
2018-10-01T12:45:01.211Z,40.53
2018-10-01T12:47:29.556Z,40.51
2018-10-01T12:49:57.940Z,39.79
2018-10-01T12:52:26.379Z,40.28
2018-10-01T12:54:54.670Z,41.07
2018-10-01T12:57:23.017Z,41.23
2018-10-01T12:59:51.351Z,40.59
2018-10-01T13:02:19.773Z,40.99
2018-10-01T13:04:48.117Z,41.66
2018-10-01T13:07:16.418Z,41.19
2018-10-01T13:09:44.758Z,40.43
2018-10-01T13:12:13.149Z,40.98
2018-10-01T13:14:41.541Z,41.00
2018-10-01T13:17:09.864Z,41.34
2018-10-01T13:19:38.187Z,40.95
2018-10-01T13:22:06.746Z,40.57
2018-10-01T13:24:35.064Z,41.17
2018-10-01T13:27:03.334Z,41.43
2018-10-01T13:29:31.664Z,41.67
2018-10-01T13:32:00.223Z,40.59
2018-10-01T13:34:28.426Z,41.14
2018-10-01T13:36:56.742Z,41.31
2018-10-01T13:39:25.210Z,41.33
2018-10-01T13:41:53.530Z,41.22
2018-10-01T13:44:21.986Z,40.62
2018-10-01T13:46:50.199Z,41.38
2018-10-01T13:49:18.487Z,41.42
2018-10-01T13:51:46.817Z,40.78
2018-10-01T13:54:15.465Z,41.30
2018-10-01T13:56:43.650Z,40.67
2018-10-01T13:59:11.990Z,41.34
2018-10-01T14:01:40.430Z,41.00
2018-10-01T14:04:08.840Z,40.68
2018-10-01T14:06:37.166Z,41.57
2018-10-01T14:09:07.402Z,42.39
2018-10-01T14:11:35.770Z,41.59
2018-10-01T14:14:04.137Z,41.46
2018-10-01T14:16:32.550Z,41.66
2018-10-01T14:19:00.874Z,40.95
2018-10-01T14:21:29.177Z,41.04
2018-10-01T14:23:57.882Z,41.14
2018-10-01T14:26:26.587Z,41.86
2018-10-01T14:28:54.887Z,42.21
2018-10-01T14:31:23.735Z,42.05
2018-10-01T14:33:52.014Z,41.94
2018-10-01T14:36:20.393Z,41.48
2018-10-01T14:38:48.650Z,42.09
2018-10-01T14:41:16.947Z,42.01
2018-10-01T14:43:45.281Z,42.01
2018-10-01T14:46:13.590Z,41.11
2018-10-01T14:48:42.008Z,41.78
2018-10-01T14:51:10.345Z,41.30
2018-10-01T14:53:38.595Z,41.67
2018-10-01T14:56:06.998Z,41.62
2018-10-01T14:58:35.278Z,40.84
2018-10-01T15:01:03.644Z,41.33
2018-10-01T15:03:32.052Z,41.11
2018-10-01T15:06:00.442Z,40.53
2018-10-01T15:08:29.471Z,40.40
2018-10-01T15:10:58.162Z,40.32
2018-10-01T15:13:26.626Z,40.27
2018-10-01T15:15:56.086Z,40.75
2018-10-01T15:18:24.470Z,40.39
2018-10-01T15:20:52.770Z,40.46
2018-10-01T15:23:21.151Z,39.54
2018-10-01T15:25:49.483Z,40.21
2018-10-01T15:28:17.767Z,39.29
2018-10-01T15:30:46.579Z,39.10
2018-10-01T15:33:14.877Z,39.33
2018-10-01T15:35:43.223Z,38.81
2018-10-01T15:38:11.532Z,38.60
2018-10-01T15:40:39.830Z,38.42
2018-10-01T15:43:08.138Z,38.45
2018-10-01T15:45:36.503Z,38.82
2018-10-01T15:48:04.830Z,38.05
2018-10-01T15:50:33.258Z,37.83
2018-10-01T15:53:02.103Z,38.31
2018-10-01T15:55:30.423Z,38.37
2018-10-01T15:57:59.223Z,37.68
2018-10-01T16:00:27.914Z,37.93
2018-10-01T16:02:56.259Z,37.12
2018-10-01T16:05:24.561Z,37.40
2018-10-01T16:07:52.851Z,36.96
2018-10-01T16:10:21.574Z,37.48
2018-10-01T16:12:49.907Z,37.33
2018-10-01T16:15:18.242Z,36.88
2018-10-01T16:17:46.568Z,37.31
2018-10-01T16:20:14.883Z,37.08
2018-10-01T16:22:43.401Z,36.47
2018-10-01T16:25:11.953Z,37.15
2018-10-01T16:27:40.443Z,37.19
2018-10-01T16:30:09.183Z,36.46
2018-10-01T16:32:37.570Z,36.40
2018-10-01T16:35:05.947Z,36.38
2018-10-01T16:37:34.262Z,36.78
2018-10-01T16:40:02.698Z,36.96
2018-10-01T16:42:31.617Z,36.53
2018-10-01T16:45:00.570Z,37.04
2018-10-01T16:47:28.938Z,36.07
2018-10-01T16:49:57.273Z,36.14
2018-10-01T16:52:25.559Z,35.96
2018-10-01T16:54:54.065Z,36.94
2018-10-01T16:57:22.672Z,35.83
2018-10-01T16:59:51.395Z,36.83
2018-10-01T17:02:19.722Z,36.54
2018-10-01T17:04:48.097Z,36.08
2018-10-01T17:07:16.492Z,36.72
2018-10-01T17:09:44.817Z,35.84
2018-10-01T17:12:13.163Z,36.42
2018-10-01T17:14:41.523Z,36.33
2018-10-01T17:17:09.869Z,36.45
2018-10-01T17:19:38.227Z,36.48
2018-10-01T17:22:06.762Z,35.32
2018-10-01T17:24:35.080Z,35.91
2018-10-01T17:27:03.414Z,35.79
2018-10-01T17:29:32.045Z,35.73
2018-10-01T17:32:00.376Z,35.65
2018-10-01T17:34:28.740Z,35.10
2018-10-01T17:36:57.074Z,35.02
2018-10-01T17:39:25.358Z,34.95
2018-10-01T17:41:53.702Z,35.00
2018-10-01T17:44:21.987Z,35.69
2018-10-01T17:46:50.291Z,34.57
2018-10-01T17:49:18.614Z,34.71
2018-10-01T17:51:46.959Z,34.81
2018-10-01T17:54:15.407Z,34.47
2018-10-01T17:56:43.699Z,34.78
2018-10-01T17:59:12.021Z,34.81
2018-10-01T18:01:40.404Z,35.02
2018-10-01T18:04:08.863Z,34.00
2018-10-01T18:06:37.353Z,34.87
2018-10-01T18:09:08.617Z,34.07
2018-10-01T18:11:37.130Z,34.01
2018-10-01T18:14:05.481Z,33.94
2018-10-01T18:16:33.933Z,34.69
2018-10-01T18:19:02.210Z,34.58
2018-10-01T18:21:30.721Z,34.85
2018-10-01T18:23:59.187Z,34.33
2018-10-01T18:26:27.546Z,34.36
2018-10-01T18:28:56.110Z,34.37
2018-10-01T18:31:24.603Z,33.07
2018-10-01T18:33:53.034Z,33.96
2018-10-01T18:36:21.462Z,33.30
2018-10-01T18:38:49.899Z,33.30
2018-10-01T18:41:18.217Z,33.68
2018-10-01T18:43:46.801Z,34.23
2018-10-01T18:46:15.083Z,33.62
2018-10-01T18:48:43.423Z,34.17
2018-10-01T18:51:11.795Z,34.10
2018-10-01T18:53:40.200Z,33.51
2018-10-01T18:56:08.616Z,33.47
2018-10-01T18:58:36.990Z,33.36
2018-10-01T19:01:06.779Z,33.96
2018-10-01T19:03:35.258Z,33.86
2018-10-01T19:06:03.614Z,33.94
2018-10-01T19:08:32.139Z,33.55
2018-10-01T19:11:00.511Z,33.37
2018-10-01T19:13:28.922Z,33.41
2018-10-01T19:15:57.331Z,34.30
2018-10-01T19:18:25.659Z,34.14
2018-10-01T19:20:53.984Z,33.80
2018-10-01T19:23:22.356Z,34.33
2018-10-01T19:25:50.725Z,34.12
2018-10-01T19:28:19.106Z,34.06
2018-10-01T19:30:47.438Z,33.83
2018-10-01T19:33:15.897Z,33.36
2018-10-01T19:35:44.234Z,33.71
2018-10-01T19:38:12.611Z,33.80
2018-10-01T19:40:40.978Z,34.42
2018-10-01T19:43:09.413Z,33.94
2018-10-01T19:45:38.259Z,33.69
2018-10-01T19:48:38.004Z,33.93
2018-10-01T19:51:06.626Z,34.31
2018-10-01T19:53:35.247Z,33.84
2018-10-01T19:56:03.596Z,33.88
2018-10-01T19:58:31.931Z,33.73
2018-10-01T20:01:00.247Z,34.46
2018-10-01T20:03:28.694Z,34.07
2018-10-01T20:05:57.123Z,34.20
2018-10-01T20:08:25.570Z,34.79
2018-10-01T20:10:53.940Z,34.86
2018-10-01T20:13:22.406Z,35.08
2018-10-01T20:15:50.794Z,34.60
2018-10-01T20:18:19.122Z,34.95
2018-10-01T20:20:47.506Z,34.75
2018-10-01T20:23:15.859Z,34.20
2018-10-01T20:25:44.423Z,34.87
2018-10-01T20:28:12.896Z,35.24
2018-10-01T20:30:41.187Z,35.09
2018-10-01T20:33:10.316Z,35.39
2018-10-01T20:35:38.799Z,34.68
2018-10-01T20:38:07.200Z,35.22
2018-10-01T20:40:35.520Z,34.77
2018-10-01T20:43:04.229Z,35.59
2018-10-01T20:45:32.510Z,35.67
2018-10-01T20:48:00.949Z,35.93
2018-10-01T20:50:29.326Z,35.67
2018-10-01T20:52:57.755Z,35.11
2018-10-01T20:55:26.070Z,35.29
2018-10-01T20:57:54.631Z,35.59
2018-10-01T21:00:23.077Z,36.05
2018-10-01T21:02:51.515Z,36.17
2018-10-01T21:05:20.010Z,35.49
2018-10-01T21:07:48.299Z,36.17
2018-10-01T21:10:16.689Z,36.40
2018-10-01T21:12:45.010Z,35.66
2018-10-01T21:15:13.355Z,36.43
2018-10-01T21:17:42.650Z,36.49
2018-10-01T21:20:10.990Z,36.01
2018-10-01T21:22:39.312Z,36.59
2018-10-01T21:25:07.688Z,36.28
2018-10-01T21:27:35.995Z,35.86
2018-10-01T21:30:04.762Z,36.71
2018-10-01T21:32:33.065Z,36.73
2018-10-01T21:35:01.363Z,36.02
2018-10-01T21:37:29.683Z,36.15
2018-10-01T21:40:06.975Z,36.19
2018-10-01T21:42:35.301Z,36.93
2018-10-01T21:45:03.986Z,36.42
2018-10-01T21:47:32.824Z,36.19
2018-10-01T21:50:01.209Z,37.18
2018-10-01T21:52:29.849Z,37.14
2018-10-01T21:54:58.402Z,37.44
2018-10-01T21:57:26.782Z,37.03
2018-10-01T21:59:55.143Z,36.66
2018-10-01T22:02:23.467Z,37.45
2018-10-01T22:04:51.786Z,37.26
2018-10-01T22:07:20.256Z,36.66
2018-10-01T22:09:49.159Z,37.26
2018-10-01T22:12:17.489Z,38.10
2018-10-01T22:14:45.863Z,37.72
2018-10-01T22:17:15.162Z,37.74
2018-10-01T22:19:43.491Z,37.78
2018-10-01T22:22:11.858Z,37.40
2018-10-01T22:24:40.187Z,38.54
2018-10-01T22:27:08.514Z,37.62
2018-10-01T22:29:36.943Z,38.58
2018-10-01T22:32:05.251Z,38.76
2018-10-01T22:34:33.542Z,38.87
2018-10-01T22:37:01.914Z,39.18
2018-10-01T22:39:30.198Z,38.84
2018-10-01T22:41:58.477Z,38.74
2018-10-01T22:44:26.774Z,38.91
2018-10-01T22:46:55.083Z,38.74
2018-10-01T22:49:23.503Z,39.27
2018-10-01T22:51:51.814Z,39.16
2018-10-01T22:54:20.166Z,39.66
2018-10-01T22:56:48.442Z,39.80
2018-10-01T22:59:17.259Z,39.12
2018-10-01T23:01:45.550Z,38.98
2018-10-01T23:04:13.826Z,39.43
2018-10-01T23:06:42.140Z,39.65
2018-10-01T23:09:10.502Z,39.94
2018-10-01T23:11:38.813Z,40.27
2018-10-01T23:14:07.159Z,40.32
2018-10-01T23:16:35.465Z,39.47
2018-10-01T23:19:03.754Z,40.40
2018-10-01T23:21:32.082Z,40.28
2018-10-01T23:24:00.473Z,40.17
2018-10-01T23:26:28.773Z,39.71
2018-10-01T23:28:57.047Z,40.66
2018-10-01T23:31:25.377Z,39.92
2018-10-01T23:33:53.780Z,39.94
2018-10-01T23:36:22.150Z,39.97
2018-10-01T23:38:50.562Z,39.96
2018-10-01T23:41:19.286Z,40.92
2018-10-01T23:43:47.598Z,40.91
2018-10-01T23:46:15.891Z,40.14
2018-10-01T23:48:44.174Z,40.50
2018-10-01T23:51:12.538Z,40.96
2018-10-01T23:53:41.574Z,40.41
2018-10-01T23:56:09.918Z,41.24
2018-10-01T23:58:38.254Z,40.32
